Time;durP1;ratioP1;P1;durP2;ratioP2;P2;SDS_P1;SDS_P2;PMS_P1;PMS_P2;Temp;Humidity;BMP_temperature;BMP_pressure;BME280_temperature;BME280_humidity;BME280_pressure;Samples;Min_cycle;Max_cycle;Signal;HPM_P1;HPM_P2
2021/06/05 00:00:15;;;;;;;21.73;19.45;;;23.50;99.90;;;;;;1878161;76;21768;-75
2021/06/05 00:02:42;;;;;;;22.70;20.55;;;23.50;99.90;;;;;;1868338;76;21541;-74
2021/06/05 00:05:10;;;;;;;22.35;20.17;;;23.50;99.90;;;;;;1873264;76;21536;-75
2021/06/05 00:07:38;;;;;;;21.62;19.62;;;23.50;99.90;;;;;;1877361;76;21050;-74
2021/06/05 00:10:09;;;;;;;22.80;20.60;;;23.40;99.90;;;;;;1872739;76;21051;-74
2021/06/05 00:12:37;;;;;;;23.07;20.77;;;23.40;99.90;;;;;;1877776;76;21132;-73
2021/06/05 00:15:08;;;;;;;23.07;20.43;;;23.30;99.90;;;;;;1869167;76;21125;-74
2021/06/05 00:17:35;;;;;;;23.80;21.42;;;23.30;99.90;;;;;;1876842;76;21548;-74
2021/06/05 00:20:12;;;;;;;23.92;21.50;;;23.30;99.90;;;;;;1891747;75;21109;-74
2021/06/05 00:22:39;;;;;;;24.18;21.80;;;23.30;99.90;;;;;;1882026;75;21083;-73
2021/06/05 00:25:10;;;;;;;24.30;21.35;;;23.30;99.90;;;;;;1878251;76;21171;-73
2021/06/05 00:27:38;;;;;;;24.98;22.55;;;23.30;99.90;;;;;;1874217;76;21530;-74
2021/06/05 00:30:07;;;;;;;24.98;22.48;;;23.20;99.90;;;;;;1869474;76;21114;-73
2021/06/05 00:32:35;;;;;;;25.17;22.52;;;23.20;99.90;;;;;;1880304;76;21085;-76
2021/06/05 00:35:04;;;;;;;25.77;22.85;;;23.30;99.90;;;;;;1875259;76;21153;-75
2021/06/05 00:37:31;;;;;;;26.77;24.18;;;23.30;99.90;;;;;;1877351;76;21113;-76
2021/06/05 00:39:59;;;;;;;25.77;23.18;;;23.30;99.90;;;;;;1877634;75;21207;-75
2021/06/05 00:42:26;;;;;;;25.27;22.77;;;23.30;99.90;;;;;;1913556;75;21171;-76
2021/06/05 00:44:54;;;;;;;23.38;20.97;;;23.20;99.90;;;;;;1887330;75;21096;-75
2021/06/05 00:47:21;;;;;;;24.57;22.15;;;23.20;99.90;;;;;;1880518;76;21187;-75
2021/06/05 00:49:49;;;;;;;22.52;20.27;;;23.20;99.90;;;;;;1873030;76;21214;-75
2021/06/05 00:52:20;;;;;;;25.30;21.87;;;23.20;99.90;;;;;;1871647;76;21553;-73
2021/06/05 00:54:47;;;;;;;24.12;21.60;;;23.10;99.90;;;;;;1877919;76;21015;-75
2021/06/05 00:57:15;;;;;;;23.42;21.12;;;23.10;99.90;;;;;;1859807;76;21153;-74
2021/06/05 00:59:42;;;;;;;25.92;21.25;;;23.00;99.90;;;;;;1871967;76;21718;-75
2021/06/05 01:02:10;;;;;;;23.42;21.25;;;23.00;99.90;;;;;;1880504;75;21112;-75
2021/06/05 01:04:39;;;;;;;24.18;21.68;;;23.00;99.90;;;;;;1880577;76;21098;-75
2021/06/05 01:07:12;;;;;;;23.75;21.25;;;23.00;99.90;;;;;;1881380;76;21030;-75
2021/06/05 01:09:56;;;;;;;25.65;23.15;;;22.90;99.90;;;;;;1874893;76;21133;-73
2021/06/05 01:12:42;;;;;;;23.07;20.65;;;22.90;99.90;;;;;;1862469;76;21473;-75
2021/06/05 01:15:13;;;;;;;22.62;20.30;;;22.90;99.90;;;;;;1871842;76;21061;-74
2021/06/05 01:17:43;;;;;;;22.82;20.62;;;22.80;99.90;;;;;;1867156;76;21198;-74
2021/06/05 01:20:17;;;;;;;24.15;21.65;;;22.80;99.90;;;;;;1879349;76;21208;-75
2021/06/05 01:23:04;;;;;;;22.60;20.50;;;22.70;99.90;;;;;;1867547;76;21128;-75
2021/06/05 01:25:57;;;;;;;24.65;22.00;;;22.70;99.90;;;;;;1868388;76;21102;-73
2021/06/05 01:28:28;;;;;;;24.43;22.10;;;22.70;99.90;;;;;;1875986;76;21516;-76
2021/06/05 01:30:57;;;;;;;23.67;21.12;;;22.70;99.90;;;;;;1876869;76;21206;-76
2021/06/05 01:33:28;;;;;;;22.48;20.27;;;22.60;99.90;;;;;;1881365;76;21063;-76
2021/06/05 01:35:56;;;;;;;24.18;21.70;;;22.60;99.90;;;;;;1839086;76;21006;-76
2021/06/05 01:38:25;;;;;;;22.52;20.20;;;22.60;99.90;;;;;;1869888;76;21610;-76
2021/06/05 01:40:54;;;;;;;22.52;20.30;;;22.60;99.90;;;;;;1879200;76;21124;-76
2021/06/05 01:43:25;;;;;;;23.35;21.15;;;22.60;99.90;;;;;;1879547;76;21094;-75
2021/06/05 01:45:54;;;;;;;24.32;21.93;;;22.60;99.90;;;;;;1876570;76;21089;-76
2021/06/05 01:48:22;;;;;;;24.00;21.65;;;22.60;99.90;;;;;;1879308;76;21128;-76
2021/06/05 01:50:49;;;;;;;24.32;22.00;;;22.50;99.90;;;;;;1877712;76;21167;-74
2021/06/05 01:53:23;;;;;;;22.67;20.43;;;22.40;99.90;;;;;;1871083;76;21113;-75
2021/06/05 01:55:56;;;;;;;23.52;21.23;;;22.40;99.90;;;;;;1871572;76;21102;-75
2021/06/05 01:58:27;;;;;;;23.40;21.00;;;22.30;99.90;;;;;;1868303;76;21234;-75
2021/06/05 02:00:57;;;;;;;24.50;22.13;;;22.40;99.90;;;;;;1872460;76;21132;-75
2021/06/05 02:03:25;;;;;;;23.65;21.45;;;22.40;99.90;;;;;;1877910;76;21563;-73
2021/06/05 02:05:54;;;;;;;23.45;21.23;;;22.40;99.90;;;;;;1878237;76;21163;-74
2021/06/05 02:08:25;;;;;;;22.40;20.30;;;22.40;99.90;;;;;;1879101;76;21500;-76
2021/06/05 02:10:55;;;;;;;23.47;21.00;;;22.40;99.90;;;;;;1872849;76;22195;-76
2021/06/05 02:13:26;;;;;;;24.43;22.13;;;22.30;99.90;;;;;;1865035;76;21604;-74
2021/06/05 02:15:57;;;;;;;23.27;20.97;;;22.30;99.90;;;;;;1880161;76;21178;-75
2021/06/05 02:18:28;;;;;;;24.10;21.90;;;22.20;99.90;;;;;;1877459;76;21489;-73
2021/06/05 02:21:03;;;;;;;25.35;21.55;;;22.20;99.90;;;;;;1868532;76;21184;-74
2021/06/05 02:23:36;;;;;;;23.38;21.15;;;22.20;99.90;;;;;;1870581;76;21471;-73
2021/06/05 02:26:04;;;;;;;24.27;21.68;;;22.20;99.90;;;;;;1878980;76;21116;-74
2021/06/05 02:28:33;;;;;;;24.20;21.62;;;22.20;99.90;;;;;;1867309;76;21431;-75
2021/06/05 02:31:02;;;;;;;27.22;23.00;;;22.20;99.90;;;;;;1876749;76;21167;-75
2021/06/05 02:33:30;;;;;;;22.37;20.27;;;22.10;99.90;;;;;;1878978;76;22181;-75
2021/06/05 02:36:00;;;;;;;23.27;20.97;;;22.00;99.90;;;;;;1877841;76;21100;-75
2021/06/05 02:38:29;;;;;;;24.10;21.68;;;22.10;99.90;;;;;;1885075;75;21537;-75
2021/06/05 02:40:58;;;;;;;22.35;20.05;;;22.10;99.90;;;;;;1875169;75;21113;-75
2021/06/05 02:43:29;;;;;;;23.70;21.33;;;22.00;99.90;;;;;;1873608;76;21579;-76
2021/06/05 02:46:09;;;;;;;23.05;20.85;;;22.00;99.90;;;;;;1880499;76;21045;-77
2021/06/05 02:48:45;;;;;;;23.07;20.77;;;22.00;99.90;;;;;;1880166;76;21110;-77
2021/06/05 02:51:13;;;;;;;22.95;20.70;;;21.90;99.90;;;;;;1880996;76;21027;-75
2021/06/05 02:53:40;;;;;;;23.02;20.82;;;21.90;99.90;;;;;;1879663;76;21629;-75
2021/06/05 02:56:10;;;;;;;21.87;19.67;;;21.90;99.90;;;;;;1881046;76;22677;-75
2021/06/05 02:58:38;;;;;;;22.87;20.75;;;21.90;99.90;;;;;;1870811;76;21169;-75
2021/06/05 03:01:08;;;;;;;22.17;19.92;;;21.90;99.90;;;;;;1877205;76;21169;-75
2021/06/05 03:03:36;;;;;;;22.15;20.15;;;21.90;99.90;;;;;;1875436;76;21537;-75
2021/06/05 03:06:04;;;;;;;22.25;19.95;;;21.90;99.90;;;;;;1880685;76;21113;-75
2021/06/05 03:08:35;;;;;;;22.60;20.40;;;21.90;99.90;;;;;;1880190;76;21407;-75
2021/06/05 03:11:05;;;;;;;21.62;19.50;;;21.90;99.90;;;;;;1897858;75;21113;-75
2021/06/05 03:13:33;;;;;;;21.02;18.90;;;21.80;99.90;;;;;;1906324;75;21053;-75
2021/06/05 03:16:01;;;;;;;22.27;20.15;;;21.80;99.90;;;;;;1860448;76;21094;-74
2021/06/05 03:18:28;;;;;;;20.05;18.15;;;21.80;99.90;;;;;;1865694;76;21580;-74
2021/06/05 03:20:57;;;;;;;20.95;18.95;;;21.80;99.90;;;;;;1874835;76;21567;-73
2021/06/05 03:23:27;;;;;;;22.17;18.87;;;21.80;99.90;;;;;;1877652;75;21234;-73
2021/06/05 03:25:54;;;;;;;21.02;19.02;;;21.70;99.90;;;;;;1878307;76;21067;-73
2021/06/05 03:28:24;;;;;;;21.62;19.50;;;21.80;99.90;;;;;;1879136;75;21210;-74
2021/06/05 03:30:52;;;;;;;19.85;17.90;;;21.80;99.90;;;;;;1873384;76;21093;-74
2021/06/05 03:33:21;;;;;;;20.08;18.25;;;21.80;99.90;;;;;;1875565;76;21502;-73
2021/06/05 03:35:50;;;;;;;20.60;18.55;;;21.70;99.90;;;;;;1866613;76;21174;-74
2021/06/05 03:38:18;;;;;;;21.02;19.02;;;21.70;99.90;;;;;;1872040;76;21174;-73
2021/06/05 03:40:45;;;;;;;20.52;18.62;;;21.70;99.90;;;;;;1876722;76;21519;-72
2021/06/05 03:43:13;;;;;;;20.48;18.42;;;21.70;99.90;;;;;;1876265;75;21503;-73
2021/06/05 03:45:41;;;;;;;19.92;18.02;;;21.70;99.90;;;;;;1855143;76;21164;-75
2021/06/05 03:48:10;;;;;;;20.92;18.95;;;21.80;99.90;;;;;;1866094;76;21144;-74
2021/06/05 03:50:43;;;;;;;19.35;17.45;;;21.70;99.90;;;;;;1877283;76;21137;-73
2021/06/05 03:53:12;;;;;;;17.85;16.12;;;21.80;99.90;;;;;;1878008;76;22301;-73
2021/06/05 03:55:41;;;;;;;18.82;16.80;;;21.80;99.90;;;;;;1879443;76;21062;-73
2021/06/05 03:58:37;;;;;;;18.42;16.52;;;21.80;99.90;;;;;;1880072;76;21257;-73
2021/06/05 04:00:42;;;;;;;20.77;15.95;;;21.70;99.90;;;;;;1834926;77;21623;-71
2021/06/05 04:03:12;;;;;;;18.03;16.43;;;21.70;99.90;;;;;;1878714;76;22060;-70
2021/06/05 04:05:40;;;;;;;16.73;15.13;;;21.70;99.90;;;;;;1886220;76;21062;-69
2021/06/05 04:08:10;;;;;;;17.37;15.55;;;21.70;99.90;;;;;;1920347;73;21063;-69
2021/06/05 04:10:38;;;;;;;19.90;16.27;;;21.70;99.90;;;;;;1884938;75;21091;-69
2021/06/05 04:13:06;;;;;;;18.23;16.37;;;21.70;99.90;;;;;;1885265;75;21059;-69
2021/06/05 04:15:34;;;;;;;17.87;16.00;;;21.70;99.90;;;;;;1884495;76;21047;-69
2021/06/05 04:18:07;;;;;;;17.92;16.00;;;21.80;99.90;;;;;;1905817;75;21125;-70
2021/06/05 04:20:37;;;;;;;16.97;15.28;;;21.70;99.90;;;;;;1902622;74;21059;-69
2021/06/05 04:23:06;;;;;;;16.55;14.90;;;21.80;99.90;;;;;;1900385;75;21067;-69
2021/06/05 04:25:34;;;;;;;17.82;16.02;;;21.90;99.90;;;;;;1883862;76;21143;-68
2021/06/05 04:28:02;;;;;;;16.70;15.10;;;21.90;99.90;;;;;;1884978;75;21137;-71
2021/06/05 04:30:31;;;;;;;19.10;15.43;;;21.90;99.90;;;;;;1885644;75;21067;-69
2021/06/05 04:32:59;;;;;;;17.70;14.23;;;21.90;99.90;;;;;;1883819;76;21580;-68
2021/06/05 04:35:28;;;;;;;15.98;14.03;;;21.90;99.90;;;;;;1897174;75;21095;-69
2021/06/05 04:37:56;;;;;;;16.07;13.65;;;21.90;99.90;;;;;;1891219;75;21560;-71
2021/06/05 04:40:25;;;;;;;15.80;14.25;;;21.90;99.90;;;;;;1884654;75;21064;-70
2021/06/05 04:42:53;;;;;;;19.62;13.58;;;21.90;99.90;;;;;;1883770;76;21110;-68
2021/06/05 04:45:21;;;;;;;14.23;12.73;;;21.90;99.90;;;;;;1884553;75;21224;-71
2021/06/05 04:47:49;;;;;;;14.13;12.73;;;21.90;99.90;;;;;;1906704;75;21083;-70
2021/06/05 04:50:20;;;;;;;14.60;12.90;;;21.90;99.90;;;;;;1891137;75;21596;-70
2021/06/05 04:52:51;;;;;;;15.78;12.65;;;22.00;99.90;;;;;;1885329;75;21545;-71
2021/06/05 04:55:18;;;;;;;14.38;12.85;;;22.00;99.90;;;;;;1907709;75;21099;-70
2021/06/05 04:57:46;;;;;;;13.68;12.37;;;22.10;99.90;;;;;;1901930;75;21157;-70
2021/06/05 05:00:17;;;;;;;14.43;13.03;;;22.10;99.90;;;;;;1886896;75;21172;-70
2021/06/05 05:02:44;;;;;;;15.10;12.58;;;22.20;99.90;;;;;;1884408;76;21059;-72
2021/06/05 05:05:13;;;;;;;13.35;12.03;;;22.20;99.90;;;;;;1905839;75;21024;-70
2021/06/05 05:07:43;;;;;;;13.32;12.13;;;22.20;99.90;;;;;;1917132;75;21582;-70
2021/06/05 05:10:12;;;;;;;13.43;12.13;;;22.30;99.90;;;;;;1912581;74;21217;-71
2021/06/05 05:12:40;;;;;;;14.43;12.95;;;22.30;99.90;;;;;;1916391;75;21099;-69
2021/06/05 05:15:08;;;;;;;15.75;13.32;;;22.20;99.90;;;;;;1889222;75;21773;-72
2021/06/05 05:17:36;;;;;;;14.47;12.20;;;22.30;99.90;;;;;;1890500;75;21118;-71
2021/06/05 05:20:09;;;;;;;13.72;12.33;;;22.30;99.90;;;;;;1884715;75;21239;-71
2021/06/05 05:22:40;;;;;;;17.48;13.40;;;22.40;99.90;;;;;;1897211;75;21373;-70
2021/06/05 05:25:09;;;;;;;14.07;12.63;;;22.40;99.90;;;;;;1896492;75;21200;-70
2021/06/05 05:27:36;;;;;;;14.90;12.30;;;22.20;99.90;;;;;;1887432;75;21071;-69
2021/06/05 05:30:07;;;;;;;12.95;11.60;;;22.30;99.90;;;;;;1859050;76;21156;-70
2021/06/05 05:32:34;;;;;;;14.73;12.37;;;22.40;99.90;;;;;;1840663;78;21046;-71
2021/06/05 05:35:02;;;;;;;13.13;11.83;;;22.50;99.90;;;;;;1874064;76;21070;-70
2021/06/05 05:37:30;;;;;;;16.45;10.98;;;22.50;99.90;;;;;;1874528;76;21042;-70
2021/06/05 05:39:57;;;;;;;14.00;12.55;;;22.50;99.90;;;;;;1847078;76;21086;-69
2021/06/05 05:42:25;;;;;;;13.30;11.97;;;22.50;99.90;;;;;;1843177;78;21042;-69
2021/06/05 05:44:52;;;;;;;12.65;11.43;;;22.50;99.90;;;;;;1822813;78;21050;-69
2021/06/05 05:47:20;;;;;;;13.25;11.08;;;22.50;99.90;;;;;;1820758;78;21071;-70
2021/06/05 05:49:47;;;;;;;12.65;11.35;;;22.50;99.90;;;;;;1823853;78;21180;-69
2021/06/05 05:52:15;;;;;;;14.68;11.70;;;22.50;99.90;;;;;;1812716;79;21070;-71
2021/06/05 05:54:42;;;;;;;19.48;11.10;;;22.50;99.90;;;;;;1815480;76;21069;-70
2021/06/05 05:57:10;;;;;;;13.18;11.05;;;22.50;99.90;;;;;;1835389;76;21124;-69
2021/06/05 05:59:38;;;;;;;13.98;12.58;;;22.50;99.90;;;;;;1855309;77;21176;-70
2021/06/05 06:02:06;;;;;;;13.48;11.10;;;22.40;99.90;;;;;;1843407;77;21060;-67
2021/06/05 06:04:33;;;;;;;13.20;11.90;;;22.40;99.90;;;;;;1850839;77;21548;-70
2021/06/05 06:07:01;;;;;;;12.63;11.03;;;22.50;99.90;;;;;;1865489;77;21118;-68
2021/06/05 06:09:29;;;;;;;13.35;11.25;;;22.50;99.90;;;;;;1857432;76;21096;-68
2021/06/05 06:11:56;;;;;;;17.90;11.50;;;22.50;99.90;;;;;;1854607;77;21610;-69
2021/06/05 06:14:24;;;;;;;14.25;11.93;;;22.50;99.90;;;;;;1839641;77;21556;-69
2021/06/05 06:16:51;;;;;;;13.72;12.10;;;22.50;99.90;;;;;;1839325;77;21120;-70
2021/06/05 06:19:19;;;;;;;13.08;11.50;;;22.40;99.90;;;;;;1843505;77;21172;-68
2021/06/05 06:21:46;;;;;;;15.60;12.25;;;22.50;99.90;;;;;;1837101;77;21091;-68
2021/06/05 06:24:15;;;;;;;19.82;12.90;;;22.40;99.90;;;;;;1840531;77;21139;-69
2021/06/05 06:26:43;;;;;;;15.18;12.98;;;22.40;99.90;;;;;;1850096;77;21556;-75
2021/06/05 06:29:16;;;;;;;14.05;12.35;;;22.40;99.90;;;;;;1864671;77;21126;-69
2021/06/05 06:31:46;;;;;;;14.68;11.80;;;22.40;99.90;;;;;;1837726;77;21148;-68
2021/06/05 06:34:15;;;;;;;14.13;12.40;;;22.40;99.90;;;;;;1848758;77;21075;-74
2021/06/05 06:36:43;;;;;;;13.28;11.88;;;22.40;99.90;;;;;;1862281;76;21235;-74
2021/06/05 06:39:13;;;;;;;14.07;12.47;;;22.40;99.90;;;;;;1858117;77;21133;-71
2021/06/05 06:41:42;;;;;;;17.30;12.35;;;22.40;99.90;;;;;;1850513;77;21549;-68
2021/06/05 06:44:11;;;;;;;14.07;11.75;;;22.40;99.90;;;;;;1848615;77;21941;-70
2021/06/05 06:46:42;;;;;;;13.43;12.13;;;22.40;99.90;;;;;;1847297;77;21179;-71
2021/06/05 06:49:11;;;;;;;12.90;11.50;;;22.40;99.90;;;;;;1850190;77;21181;-72
2021/06/05 06:51:39;;;;;;;13.95;11.83;;;22.40;99.90;;;;;;1836188;78;21107;-71
2021/06/05 06:54:09;;;;;;;16.50;11.63;;;22.40;99.90;;;;;;1861136;77;21587;-71
2021/06/05 06:56:37;;;;;;;14.23;11.95;;;22.40;99.90;;;;;;1867155;77;21188;-71
2021/06/05 06:59:06;;;;;;;14.78;13.15;;;22.30;99.90;;;;;;1867182;77;21580;-71
2021/06/05 07:01:34;;;;;;;14.30;12.00;;;22.40;99.90;;;;;;1866933;77;21083;-71
2021/06/05 07:04:01;;;;;;;15.28;12.30;;;22.40;99.90;;;;;;1851386;77;21532;-72
2021/06/05 07:06:29;;;;;;;17.17;13.38;;;22.30;99.90;;;;;;1844058;77;21115;-71
2021/06/05 07:08:57;;;;;;;13.88;12.47;;;22.40;99.90;;;;;;1866643;77;21146;-70
2021/06/05 07:11:29;;;;;;;14.43;12.33;;;22.40;99.90;;;;;;1850836;77;21347;-69
2021/06/05 07:13:59;;;;;;;16.25;13.15;;;22.40;99.90;;;;;;1837253;77;21207;-70
2021/06/05 07:16:28;;;;;;;15.10;12.88;;;22.50;99.90;;;;;;1865666;77;21470;-68
2021/06/05 07:18:55;;;;;;;17.00;13.45;;;22.50;99.90;;;;;;1866823;77;21125;-68
2021/06/05 07:21:23;;;;;;;17.30;12.50;;;22.50;99.90;;;;;;1839186;77;21047;-68
2021/06/05 07:23:51;;;;;;;15.48;13.83;;;22.60;99.90;;;;;;1838311;77;21132;-69
2021/06/05 07:26:22;;;;;;;13.45;12.07;;;22.50;99.90;;;;;;1849235;77;21046;-68
2021/06/05 07:28:51;;;;;;;14.60;13.10;;;22.60;99.90;;;;;;1859158;77;21059;-69
2021/06/05 07:31:25;;;;;;;15.93;13.20;;;22.60;99.90;;;;;;1867307;77;21016;-69
2021/06/05 07:33:54;;;;;;;16.95;14.30;;;22.60;99.90;;;;;;1867592;76;21011;-69
2021/06/05 07:36:27;;;;;;;14.90;13.20;;;22.60;99.90;;;;;;1868033;77;21481;-69
2021/06/05 07:38:54;;;;;;;19.65;14.28;;;22.60;99.90;;;;;;1865630;77;21126;-71
2021/06/05 07:41:22;;;;;;;16.97;14.25;;;22.50;99.90;;;;;;1860946;77;21148;-69
2021/06/05 07:43:49;;;;;;;23.35;15.68;;;22.60;99.90;;;;;;1847333;76;21649;-69
2021/06/05 07:46:17;;;;;;;23.22;17.35;;;22.50;99.90;;;;;;1841297;76;21161;-70
2021/06/05 07:48:45;;;;;;;18.17;15.18;;;22.50;99.90;;;;;;1836190;78;21129;-69
2021/06/05 07:51:12;;;;;;;19.95;17.30;;;22.50;99.90;;;;;;1840110;77;22118;-68
2021/06/05 07:53:39;;;;;;;20.88;17.20;;;22.60;99.90;;;;;;1855514;77;21118;-68
2021/06/05 07:56:07;;;;;;;21.55;17.77;;;22.60;99.90;;;;;;1853671;77;21188;-69
2021/06/05 07:58:35;;;;;;;23.05;17.90;;;22.60;99.90;;;;;;1861805;77;21146;-69
2021/06/05 08:01:04;;;;;;;19.90;17.80;;;22.70;99.90;;;;;;1852253;77;21106;-69
2021/06/05 08:03:32;;;;;;;21.52;16.97;;;22.60;99.90;;;;;;1869660;76;21111;-68
2021/06/05 08:05:59;;;;;;;19.95;17.62;;;22.50;99.90;;;;;;1854977;76;21305;-68
2021/06/05 08:08:27;;;;;;;19.12;17.17;;;22.60;99.90;;;;;;1866388;76;21115;-70
2021/06/05 08:10:55;;;;;;;18.75;16.35;;;22.70;99.90;;;;;;1905313;75;21145;-70
2021/06/05 08:13:22;;;;;;;19.23;16.97;;;22.60;99.90;;;;;;1916635;75;21021;-70
2021/06/05 08:15:52;;;;;;;21.07;17.98;;;22.60;99.90;;;;;;1883840;76;21580;-70
2021/06/05 08:18:21;;;;;;;18.82;16.48;;;22.50;99.90;;;;;;1900399;75;21581;-70
2021/06/05 08:20:51;;;;;;;19.95;17.35;;;22.50;99.90;;;;;;1857820;76;21520;-71
2021/06/05 08:23:21;;;;;;;19.85;17.32;;;22.40;99.90;;;;;;1854830;76;21034;-70
2021/06/05 08:25:49;;;;;;;19.23;17.17;;;22.40;99.90;;;;;;1840331;77;21166;-70
2021/06/05 08:28:21;;;;;;;19.77;17.73;;;22.40;99.90;;;;;;1856508;76;21650;-70
2021/06/05 08:30:49;;;;;;;23.07;17.37;;;22.30;99.90;;;;;;1895236;75;21243;-70
2021/06/05 08:33:17;;;;;;;18.77;16.80;;;22.20;99.90;;;;;;1905625;75;21554;-70
2021/06/05 08:35:46;;;;;;;19.62;17.35;;;22.20;99.90;;;;;;1915585;75;21143;-70
2021/06/05 08:38:16;;;;;;;19.05;16.75;;;22.20;99.90;;;;;;1905141;74;21126;-70
2021/06/05 08:40:49;;;;;;;27.37;19.10;;;22.10;99.90;;;;;;1896113;75;21083;-70
2021/06/05 08:43:32;;;;;;;22.58;18.60;;;22.10;99.90;;;;;;1856562;76;21078;-70
2021/06/05 08:46:04;;;;;;;23.83;19.52;;;22.20;99.90;;;;;;1857979;76;21121;-70
2021/06/05 08:48:32;;;;;;;20.77;18.57;;;22.10;99.90;;;;;;1824791;78;21199;-69
2021/06/05 08:51:20;;;;;;;22.32;18.75;;;22.10;99.90;;;;;;1851688;76;21184;-70
2021/06/05 08:53:49;;;;;;;22.07;19.67;;;22.00;99.90;;;;;;1883658;75;21539;-70
2021/06/05 08:56:22;;;;;;;23.87;19.10;;;22.20;99.90;;;;;;1929995;73;21103;-68
2021/06/05 08:58:55;;;;;;;23.45;19.62;;;22.20;99.90;;;;;;1907239;74;21204;-70
2021/06/05 09:01:31;;;;;;;22.50;19.12;;;22.30;99.90;;;;;;1914584;75;21094;-70
2021/06/05 09:04:02;;;;;;;23.18;19.20;;;22.40;99.90;;;;;;1897051;74;21116;-70
2021/06/05 09:06:32;;;;;;;23.05;20.23;;;22.40;99.90;;;;;;1896465;75;21048;-70
2021/06/05 09:09:03;;;;;;;22.40;19.00;;;22.40;99.90;;;;;;1891895;75;21107;-71
2021/06/05 09:11:31;;;;;;;24.43;19.70;;;22.40;99.90;;;;;;1912744;75;21583;-69
2021/06/05 09:13:59;;;;;;;23.42;19.60;;;22.50;99.90;;;;;;1897195;75;21572;-70
2021/06/05 09:16:46;;;;;;;23.38;20.50;;;22.50;99.90;;;;;;1895799;75;21218;-70
2021/06/05 09:19:20;;;;;;;23.95;20.55;;;22.50;99.90;;;;;;1906596;75;21131;-70
2021/06/05 09:21:57;;;;;;;26.23;19.65;;;22.50;99.90;;;;;;1903204;75;21149;-68
2021/06/05 09:24:34;;;;;;;23.87;21.00;;;22.50;99.90;;;;;;1883556;75;21589;-68
2021/06/05 09:27:19;;;;;;;28.55;22.30;;;22.50;99.90;;;;;;1915140;75;21048;-68
2021/06/05 09:29:55;;;;;;;23.27;20.60;;;22.40;99.90;;;;;;1914941;75;21580;-69
2021/06/05 09:32:29;;;;;;;30.27;20.57;;;22.40;99.90;;;;;;1908695;74;21158;-69
2021/06/05 09:34:59;;;;;;;26.12;20.97;;;22.40;99.90;;;;;;1894477;75;21118;-68
2021/06/05 09:37:30;;;;;;;23.90;20.75;;;22.40;99.90;;;;;;1892723;75;21566;-68
2021/06/05 09:40:06;;;;;;;24.20;20.92;;;22.40;99.90;;;;;;1889996;75;21075;-68
2021/06/05 09:42:42;;;;;;;24.52;21.35;;;22.50;99.90;;;;;;1893903;74;21110;-68
2021/06/05 09:45:08;;;;;;;26.12;20.37;;;22.50;99.90;;;;;;1910350;75;21135;-68
2021/06/05 09:47:36;;;;;;;24.10;21.60;;;22.50;99.90;;;;;;1903385;75;21642;-68
2021/06/05 09:50:22;;;;;;;25.88;21.95;;;22.50;99.90;;;;;;1904279;75;21635;-68
2021/06/05 09:52:50;;;;;;;26.10;21.68;;;22.60;99.90;;;;;;1889886;74;21545;-68
2021/06/05 09:55:20;;;;;;;26.97;22.22;;;22.60;99.90;;;;;;1887192;75;21207;-69
2021/06/05 09:57:50;;;;;;;27.60;21.80;;;22.60;99.90;;;;;;1897189;75;21043;-69
2021/06/05 10:00:27;;;;;;;24.32;21.33;;;22.70;99.90;;;;;;1910117;74;21502;-69
2021/06/05 10:03:14;;;;;;;23.80;21.30;;;22.70;99.90;;;;;;1903179;74;22219;-69
2021/06/05 10:05:44;;;;;;;23.83;21.33;;;22.70;99.90;;;;;;1910943;75;21262;-68
2021/06/05 10:08:30;;;;;;;24.60;22.00;;;22.70;99.90;;;;;;1900577;75;21143;-70
2021/06/05 10:11:03;;;;;;;23.00;20.50;;;22.80;99.90;;;;;;1902545;75;21083;-74
2021/06/05 10:13:34;;;;;;;25.57;21.73;;;22.80;99.90;;;;;;1876033;75;21184;-69
2021/06/05 10:16:07;;;;;;;24.63;20.57;;;22.90;99.90;;;;;;1901540;75;21668;-69
2021/06/05 10:18:38;;;;;;;26.05;20.62;;;23.00;99.90;;;;;;1863878;76;21227;-67
2021/06/05 10:21:24;;;;;;;23.42;20.75;;;23.10;99.90;;;;;;1845473;76;21117;-71
2021/06/05 10:23:54;;;;;;;27.27;21.60;;;23.20;99.90;;;;;;1861393;76;21110;-70
2021/06/05 10:26:31;;;;;;;24.57;21.93;;;23.20;99.90;;;;;;1852071;76;21709;-75
2021/06/05 10:29:04;;;;;;;23.30;20.85;;;23.40;99.90;;;;;;1849275;76;21122;-70
2021/06/05 10:31:33;;;;;;;22.52;20.23;;;23.60;99.90;;;;;;1838162;78;21184;-70
2021/06/05 10:34:04;;;;;;;24.32;21.02;;;23.80;99.90;;;;;;1853543;76;21167;-70
2021/06/05 10:36:40;;;;;;;22.50;20.10;;;23.90;99.90;;;;;;1829092;77;21181;-71
2021/06/05 10:39:13;;;;;;;24.25;20.80;;;24.00;99.90;;;;;;1829694;78;21197;-70
2021/06/05 10:41:44;;;;;;;22.62;20.40;;;24.00;99.90;;;;;;1851058;77;22464;-70
2021/06/05 10:44:12;;;;;;;23.90;20.40;;;24.00;99.90;;;;;;1859637;76;21040;-70
2021/06/05 10:47:06;;;;;;;23.62;20.48;;;24.00;99.90;;;;;;1861653;76;21028;-70
2021/06/05 10:49:57;;;;;;;23.40;20.90;;;24.00;99.90;;;;;;1856289;77;21212;-70
2021/06/05 10:52:42;;;;;;;22.70;20.37;;;24.00;99.90;;;;;;1858506;76;21109;-70
2021/06/05 10:55:13;;;;;;;24.37;20.12;;;24.00;99.90;;;;;;1789147;77;21109;-71
2021/06/05 10:57:43;;;;;;;25.37;20.48;;;23.90;99.90;;;;;;1847222;77;21207;-68
2021/06/05 11:00:28;;;;;;;23.85;21.35;;;23.90;99.90;;;;;;1842463;77;21052;-68
2021/06/05 11:02:58;;;;;;;24.60;20.25;;;23.80;99.90;;;;;;1852407;77;21533;-69
2021/06/05 11:05:34;;;;;;;24.95;21.52;;;23.70;99.90;;;;;;1861084;77;21107;-68
2021/06/05 11:08:16;;;;;;;23.05;20.85;;;23.60;99.90;;;;;;1873047;76;21529;-69
2021/06/05 11:10:50;;;;;;;22.67;20.40;;;23.60;99.90;;;;;;1828282;77;21117;-69
2021/06/05 11:13:36;;;;;;;23.95;21.37;;;23.60;99.90;;;;;;1803283;78;21115;-69
2021/06/05 11:16:06;;;;;;;23.87;21.35;;;23.50;99.90;;;;;;1814263;78;21139;-69
2021/06/05 11:18:36;;;;;;;23.67;21.27;;;23.40;99.90;;;;;;1806477;79;21206;-69
2021/06/05 11:21:24;;;;;;;24.23;21.65;;;23.40;99.90;;;;;;1806589;79;21193;-69
2021/06/05 11:24:01;;;;;;;27.00;23.15;;;23.40;99.90;;;;;;1869010;76;21137;-69
2021/06/05 11:26:43;;;;;;;24.20;21.77;;;23.30;99.90;;;;;;1909590;75;21079;-69
2021/06/05 11:29:22;;;;;;;25.72;22.95;;;23.20;99.90;;;;;;1884356;76;21095;-69
2021/06/05 11:32:02;;;;;;;27.60;22.35;;;23.30;99.90;;;;;;1884251;76;21635;-69
2021/06/05 11:34:41;;;;;;;25.02;22.37;;;23.20;99.90;;;;;;1884333;76;21095;-68
2021/06/05 11:37:12;;;;;;;25.17;21.80;;;23.20;99.90;;;;;;1886547;75;21204;-68
2021/06/05 11:39:51;;;;;;;24.00;21.60;;;23.20;99.90;;;;;;1880040;75;21230;-68
2021/06/05 11:42:25;;;;;;;25.82;22.05;;;23.30;99.90;;;;;;1845532;76;21180;-68
2021/06/05 11:45:02;;;;;;;26.65;22.32;;;23.40;99.90;;;;;;1839689;77;21119;-68
2021/06/05 11:47:35;;;;;;;22.58;20.17;;;23.50;99.90;;;;;;1836451;78;21047;-68
2021/06/05 11:50:14;;;;;;;23.62;21.25;;;23.60;99.90;;;;;;1836404;77;21218;-68
2021/06/05 11:52:51;;;;;;;22.25;19.60;;;23.60;99.90;;;;;;1843658;77;21506;-70
2021/06/05 11:55:24;;;;;;;23.92;20.97;;;23.60;99.90;;;;;;1858953;76;21205;-68
2021/06/05 11:58:01;;;;;;;22.30;20.10;;;23.40;99.90;;;;;;1864796;77;21028;-67
2021/06/05 12:00:38;;;;;;;24.37;20.43;;;23.40;99.90;;;;;;1839333;76;21136;-67
2021/06/05 12:03:09;;;;;;;22.67;20.50;;;23.40;99.90;;;;;;1834992;78;21662;-68
2021/06/05 12:05:42;;;;;;;26.40;23.47;;;23.40;99.90;;;;;;1834322;77;22093;-68
2021/06/05 12:08:27;;;;;;;23.45;21.12;;;23.40;99.90;;;;;;1846952;77;21195;-68
2021/06/05 12:10:57;;;;;;;23.85;21.33;;;23.30;99.90;;;;;;1838198;77;21126;-70
2021/06/05 12:13:35;;;;;;;26.60;21.87;;;23.30;99.90;;;;;;1845603;77;21195;-67
2021/06/05 12:16:12;;;;;;;27.17;21.42;;;23.20;99.90;;;;;;1868042;76;21184;-68
2021/06/05 12:18:39;;;;;;;23.73;21.40;;;23.20;99.90;;;;;;1867742;76;21536;-68
2021/06/05 12:21:13;;;;;;;24.40;21.90;;;23.10;99.90;;;;;;1863016;77;21055;-67
2021/06/05 12:23:43;;;;;;;25.62;22.95;;;23.20;99.90;;;;;;1842142;77;21008;-67
2021/06/05 12:26:19;;;;;;;25.40;22.62;;;23.30;99.90;;;;;;1868109;76;21040;-66
2021/06/05 12:28:50;;;;;;;27.10;22.13;;;23.30;99.90;;;;;;1860187;77;21079;-66
2021/06/05 12:31:30;;;;;;;24.63;22.07;;;23.30;99.90;;;;;;1868413;76;21521;-66
2021/06/05 12:34:32;;;;;;;26.12;23.47;;;23.30;99.90;;;;;;1858155;77;21125;-69
2021/06/05 12:37:17;;;;;;;24.72;22.20;;;23.40;99.90;;;;;;1857548;77;21042;-69
2021/06/05 12:39:54;;;;;;;25.77;23.07;;;23.40;99.90;;;;;;1849477;76;21646;-68
2021/06/05 12:42:31;;;;;;;26.93;23.40;;;23.30;99.90;;;;;;1834762;78;21192;-67
2021/06/05 12:45:07;;;;;;;26.77;24.18;;;23.30;99.90;;;;;;1836409;78;21204;-68
2021/06/05 12:47:38;;;;;;;24.47;22.07;;;23.30;99.90;;;;;;1836631;77;21501;-68